createdAt,value
2017-01-12T00:00:46.524Z,17.47
2017-01-12T00:01:46.464Z,17.57
2017-01-12T00:02:46.401Z,17.67
2017-01-12T00:03:46.345Z,17.76
2017-01-12T00:04:46.286Z,17.57
2017-01-12T00:05:46.216Z,17.67
2017-01-12T00:06:46.154Z,17.76
2017-01-12T00:07:46.093Z,17.67
2017-01-12T00:08:46.033Z,17.86
2017-01-12T00:09:45.968Z,17.96
2017-01-12T00:10:45.910Z,18.15
2017-01-12T00:11:45.848Z,18.54
2017-01-12T00:12:45.780Z,18.05
2017-01-12T00:13:45.718Z,18.54
2017-01-12T00:14:45.657Z,18.44
2017-01-12T00:15:45.596Z,18.44
2017-01-12T00:16:45.530Z,18.63
2017-01-12T00:17:45.471Z,18.54
2017-01-12T00:18:45.407Z,18.54
2017-01-12T00:19:45.346Z,18.34
2017-01-12T00:20:45.286Z,18.34
2017-01-12T00:21:45.227Z,18.44
2017-01-12T00:22:45.158Z,18.44
2017-01-12T00:23:45.492Z,18.44
2017-01-12T00:24:45.037Z,18.34
2017-01-12T00:25:45.364Z,18.54
2017-01-12T00:26:44.912Z,18.54
2017-01-12T00:27:44.849Z,18.34
2017-01-12T00:28:44.786Z,18.34
2017-01-12T00:29:44.725Z,18.44
2017-01-12T00:30:44.669Z,18.25
2017-01-12T00:31:44.603Z,18.44
2017-01-12T00:32:44.541Z,18.34
2017-01-12T00:33:44.480Z,18.44
2017-01-12T00:34:44.417Z,18.44
2017-01-12T00:35:44.356Z,18.54
2017-01-12T00:36:44.297Z,18.34
2017-01-12T00:37:44.232Z,18.34
2017-01-12T00:38:44.169Z,18.54
2017-01-12T00:39:44.111Z,18.54
2017-01-12T00:40:44.047Z,18.54
2017-01-12T00:41:43.985Z,18.54
2017-01-12T00:42:43.922Z,18.54
2017-01-12T00:43:43.866Z,18.63
2017-01-12T00:44:43.797Z,18.63
2017-01-12T00:45:43.738Z,18.63
2017-01-12T00:46:43.676Z,18.44
2017-01-12T00:47:43.614Z,18.54
2017-01-12T00:48:43.555Z,18.63
2017-01-12T00:49:43.892Z,18.63
2017-01-12T00:50:43.431Z,18.54
2017-01-12T00:51:43.367Z,18.73
2017-01-12T00:52:43.309Z,18.63
2017-01-12T00:53:43.243Z,18.44
2017-01-12T00:54:43.182Z,18.44
2017-01-12T00:55:43.123Z,18.44
2017-01-12T00:56:43.058Z,18.44
2017-01-12T00:57:42.998Z,18.73
2017-01-12T00:58:42.934Z,18.73
2017-01-12T00:59:42.874Z,18.73
2017-01-12T01:01:12.505Z,18.54
2017-01-12T01:02:12.420Z,18.44
2017-01-12T01:03:12.360Z,18.54
2017-01-12T01:04:12.296Z,17.86
2017-01-12T01:05:12.588Z,18.25
2017-01-12T01:06:12.173Z,18.15
2017-01-12T01:07:12.114Z,18.54
2017-01-12T01:08:12.254Z,18.25
2017-01-12T01:09:11.989Z,18.15
2017-01-12T01:10:11.929Z,18.44
2017-01-12T01:11:11.868Z,18.15
2017-01-12T01:12:11.804Z,18.25
2017-01-12T01:13:11.743Z,18.15
2017-01-12T01:14:11.682Z,18.54
2017-01-12T01:15:11.622Z,18.15
2017-01-12T01:16:11.558Z,18.05
2017-01-12T01:17:11.504Z,18.15
2017-01-12T01:18:11.434Z,18.25
2017-01-12T01:19:11.770Z,18.05
2017-01-12T01:20:11.313Z,17.96
2017-01-12T01:21:11.252Z,18.05
2017-01-12T01:22:11.186Z,18.25
2017-01-12T01:23:11.127Z,18.15
2017-01-12T01:24:11.063Z,18.15
2017-01-12T01:25:11.004Z,18.15
2017-01-12T01:26:10.941Z,18.15
2017-01-12T01:27:10.879Z,18.15
2017-01-12T01:28:10.820Z,18.15
2017-01-12T01:29:10.757Z,18.15
2017-01-12T01:30:10.694Z,18.05
2017-01-12T01:31:10.633Z,18.15
2017-01-12T01:32:10.570Z,18.05
2017-01-12T01:33:10.516Z,18.05
2017-01-12T01:34:10.448Z,18.05
2017-01-12T01:35:10.385Z,18.05
2017-01-12T01:36:10.326Z,18.15
2017-01-12T01:37:10.262Z,18.15
2017-01-12T01:38:10.200Z,18.05
2017-01-12T01:39:10.139Z,18.05
2017-01-12T01:40:10.078Z,18.15
2017-01-12T01:41:10.016Z,18.05
2017-01-12T01:42:09.954Z,18.15
2017-01-12T01:43:09.892Z,18.15
2017-01-12T01:44:09.830Z,18.15
2017-01-12T01:45:09.771Z,18.05
2017-01-12T01:46:09.708Z,18.05
2017-01-12T01:47:09.648Z,18.25
2017-01-12T01:48:09.586Z,18.05
2017-01-12T01:49:09.522Z,18.15
2017-01-12T01:50:09.462Z,18.05
2017-01-12T01:51:09.401Z,18.15
2017-01-12T01:52:09.339Z,18.15
2017-01-12T01:53:09.281Z,18.25
2017-01-12T01:54:09.228Z,18.15
2017-01-12T01:55:09.153Z,18.25
2017-01-12T01:56:09.096Z,18.05
2017-01-12T01:57:09.032Z,17.96
2017-01-12T01:58:08.972Z,18.34
2017-01-12T01:59:08.908Z,18.05
2017-01-12T02:00:08.847Z,18.05
2017-01-12T02:01:08.784Z,18.05
2017-01-12T02:02:08.725Z,18.25
2017-01-12T02:03:08.695Z,17.96
2017-01-12T02:04:08.599Z,18.05
2017-01-12T02:05:08.538Z,18.05
2017-01-12T02:06:08.477Z,18.05
2017-01-12T02:07:08.415Z,18.05
2017-01-12T02:08:08.359Z,18.05
2017-01-12T02:09:08.295Z,18.25
2017-01-12T02:10:08.232Z,18.05
2017-01-12T02:11:08.172Z,18.25
2017-01-12T02:12:08.108Z,18.15
2017-01-12T02:13:08.048Z,17.96
2017-01-12T02:14:07.984Z,18.15
2017-01-12T02:15:07.926Z,17.86
2017-01-12T02:16:07.868Z,17.86
2017-01-12T02:17:07.808Z,18.15
2017-01-12T02:18:07.738Z,18.15
2017-01-12T02:19:07.676Z,18.15
2017-01-12T02:20:07.625Z,17.96
2017-01-12T02:21:07.553Z,17.86
2017-01-12T02:22:07.493Z,17.96
2017-01-12T02:23:07.431Z,18.25
2017-01-12T02:24:07.367Z,17.96
2017-01-12T02:25:07.305Z,18.25
2017-01-12T02:26:07.245Z,18.15
2017-01-12T02:27:07.184Z,17.96
2017-01-12T02:28:07.120Z,18.05
2017-01-12T02:29:07.060Z,17.86
2017-01-12T02:30:06.998Z,18.05
2017-01-12T02:31:06.937Z,18.05
2017-01-12T02:32:06.874Z,18.05
2017-01-12T02:33:06.814Z,17.86
2017-01-12T02:34:06.752Z,18.15
2017-01-12T02:35:06.692Z,18.15
2017-01-12T02:36:06.628Z,18.15
2017-01-12T02:37:06.566Z,17.96
2017-01-12T02:38:06.507Z,17.96
2017-01-12T02:39:06.444Z,17.86
2017-01-12T02:40:06.382Z,17.76
2017-01-12T02:41:06.322Z,17.86
2017-01-12T02:42:06.259Z,17.96
2017-01-12T02:43:06.197Z,17.47
2017-01-12T02:44:06.133Z,17.96
2017-01-12T02:45:06.073Z,17.96
2017-01-12T02:46:06.010Z,17.86
2017-01-12T02:47:05.950Z,17.86
2017-01-12T02:48:05.887Z,17.57
2017-01-12T02:49:05.827Z,17.86
2017-01-12T02:50:05.764Z,17.57
2017-01-12T02:51:05.703Z,17.57
2017-01-12T02:52:05.642Z,17.67
2017-01-12T02:53:05.580Z,17.57
2017-01-12T02:54:05.517Z,17.86
2017-01-12T02:55:05.456Z,17.57
2017-01-12T02:56:05.395Z,17.67
2017-01-12T02:57:05.333Z,17.67
2017-01-12T02:58:05.270Z,17.76
2017-01-12T02:59:05.211Z,17.57
2017-01-12T03:00:05.147Z,17.76
2017-01-12T03:01:05.086Z,17.76
2017-01-12T03:02:05.023Z,17.76
2017-01-12T03:03:04.963Z,17.47
2017-01-12T03:04:04.904Z,17.57
2017-01-12T03:05:04.843Z,17.76
2017-01-12T03:06:04.778Z,17.67
2017-01-12T03:07:04.715Z,17.67
2017-01-12T03:08:04.651Z,17.86
2017-01-12T03:09:04.591Z,17.67
2017-01-12T03:10:04.534Z,17.57
2017-01-12T03:11:04.470Z,17.67
2017-01-12T03:12:04.408Z,17.67
2017-01-12T03:13:04.348Z,17.86
2017-01-12T03:14:04.283Z,17.76
2017-01-12T03:15:04.220Z,17.76
2017-01-12T03:16:04.158Z,17.76
2017-01-12T03:17:04.098Z,17.67
2017-01-12T03:18:04.036Z,17.67
2017-01-12T03:19:03.972Z,17.67
2017-01-12T03:20:03.911Z,17.67
2017-01-12T03:21:03.851Z,17.76
2017-01-12T03:22:03.789Z,17.38
2017-01-12T03:23:03.725Z,17.76
2017-01-12T03:24:03.665Z,17.67
2017-01-12T03:25:03.602Z,17.76
2017-01-12T03:26:03.543Z,17.57
2017-01-12T03:27:03.481Z,17.76
2017-01-12T03:28:03.417Z,17.57
2017-01-12T03:29:03.356Z,17.67
2017-01-12T03:30:03.295Z,17.57
2017-01-12T03:31:03.229Z,17.76
2017-01-12T03:32:03.169Z,17.67
2017-01-12T03:33:03.108Z,17.67
2017-01-12T03:34:03.045Z,17.38
2017-01-12T03:35:02.985Z,17.57
2017-01-12T03:36:02.922Z,17.67
2017-01-12T03:37:02.860Z,17.57
2017-01-12T03:38:02.801Z,17.57
2017-01-12T03:39:02.736Z,17.47
2017-01-12T03:40:03.068Z,17.57
2017-01-12T03:41:02.613Z,17.57
2017-01-12T03:42:02.549Z,17.76
2017-01-12T03:43:02.491Z,17.38
2017-01-12T03:44:02.426Z,17.57
2017-01-12T03:45:02.364Z,17.38
2017-01-12T03:46:02.304Z,17.67
2017-01-12T03:47:02.242Z,17.57
2017-01-12T03:48:02.180Z,17.57
2017-01-12T03:49:02.117Z,17.57
2017-01-12T03:50:02.056Z,17.38
2017-01-12T03:51:01.994Z,17.38
2017-01-12T03:52:01.932Z,17.38
2017-01-12T03:53:01.879Z,17.57
2017-01-12T03:54:01.810Z,17.57
2017-01-12T03:55:01.748Z,17.57
2017-01-12T03:56:01.683Z,17.47
2017-01-12T03:57:01.623Z,17.38
2017-01-12T03:58:01.561Z,17.67
2017-01-12T03:59:01.499Z,17.38
2017-01-12T04:00:01.436Z,17.57
2017-01-12T04:01:01.377Z,17.67
2017-01-12T04:02:01.324Z,17.57
2017-01-12T04:03:01.250Z,17.57
2017-01-12T04:04:01.192Z,17.67
2017-01-12T04:05:01.127Z,17.57
2017-01-12T04:06:01.065Z,17.67
2017-01-12T04:07:01.004Z,17.67
2017-01-12T04:08:00.941Z,17.57
2017-01-12T04:09:00.892Z,17.67
2017-01-12T04:10:00.818Z,17.57
2017-01-12T04:11:00.758Z,17.76
2017-01-12T04:12:00.695Z,17.76
2017-01-12T04:13:00.635Z,17.38
2017-01-12T04:14:00.571Z,17.67
2017-01-12T04:15:00.514Z,17.67
2017-01-12T04:16:00.448Z,17.67
2017-01-12T04:17:00.387Z,17.76
2017-01-12T04:18:00.324Z,17.67
2017-01-12T04:19:00.265Z,17.76
2017-01-12T04:20:00.201Z,17.86
2017-01-12T04:21:00.171Z,17.67
2017-01-12T04:22:00.079Z,17.67
2017-01-12T04:23:00.017Z,17.86
2017-01-12T04:23:59.957Z,17.67
2017-01-12T04:24:59.890Z,17.76
2017-01-12T04:26:00.222Z,17.57
2017-01-12T04:26:59.767Z,17.67
2017-01-12T04:27:59.706Z,17.57
2017-01-12T04:28:59.648Z,17.67
2017-01-12T04:29:59.585Z,17.67
2017-01-12T04:30:59.520Z,17.67
2017-01-12T04:31:59.459Z,17.47
2017-01-12T04:32:59.399Z,17.76
2017-01-12T04:33:59.343Z,17.67
2017-01-12T04:34:59.272Z,17.57
2017-01-12T04:35:59.211Z,17.57
2017-01-12T04:36:59.147Z,17.67
2017-01-12T04:37:59.113Z,17.57
2017-01-12T04:38:59.025Z,17.76
2017-01-12T04:39:58.990Z,17.86
2017-01-12T04:40:58.901Z,17.67
2017-01-12T04:41:58.842Z,17.57
2017-01-12T04:42:58.778Z,17.86
2017-01-12T04:43:58.717Z,17.67
2017-01-12T04:44:58.657Z,17.57
2017-01-12T04:45:58.595Z,17.57
2017-01-12T04:46:58.531Z,17.57
2017-01-12T04:47:58.469Z,17.76
2017-01-12T04:48:58.407Z,17.57
2017-01-12T04:49:58.347Z,17.86
2017-01-12T04:50:58.285Z,17.76
2017-01-12T04:51:58.223Z,17.76
2017-01-12T04:52:58.168Z,17.76
2017-01-12T04:53:58.101Z,17.57
2017-01-12T04:54:58.037Z,17.67
2017-01-12T04:55:58.369Z,17.67
2017-01-12T04:56:57.946Z,17.76
2017-01-12T04:57:57.851Z,17.76
2017-01-12T04:58:57.791Z,17.57
2017-01-12T04:59:57.731Z,17.67
2017-01-12T05:00:57.669Z,17.57
2017-01-12T05:01:57.607Z,17.57
2017-01-12T05:02:57.547Z,17.76
2017-01-12T05:03:57.487Z,17.86
2017-01-12T05:04:57.420Z,17.67
2017-01-12T05:05:57.362Z,17.57
2017-01-12T05:06:57.298Z,17.57
2017-01-12T05:07:57.240Z,17.86
2017-01-12T05:08:57.173Z,17.76
2017-01-12T05:09:57.114Z,17.86
2017-01-12T05:10:57.051Z,17.86
2017-01-12T05:11:56.991Z,17.86
2017-01-12T05:12:56.927Z,17.86
2017-01-12T05:13:56.866Z,17.86
2017-01-12T05:14:56.810Z,17.67
2017-01-12T05:15:56.742Z,17.86
2017-01-12T05:16:56.683Z,17.96
2017-01-12T05:17:56.621Z,17.76
2017-01-12T05:18:56.558Z,17.57
2017-01-12T05:19:56.499Z,17.67
2017-01-12T05:20:56.435Z,17.57
2017-01-12T05:21:56.376Z,17.67
2017-01-12T05:22:56.316Z,17.28
2017-01-12T05:23:56.250Z,17.28
2017-01-12T05:24:56.189Z,17.19
2017-01-12T05:25:56.129Z,17.28
2017-01-12T05:26:56.064Z,17.19
2017-01-12T05:27:56.006Z,17.28
2017-01-12T05:28:55.942Z,17.38
2017-01-12T05:29:55.882Z,17.28
2017-01-12T05:30:55.818Z,17.19
2017-01-12T05:31:55.759Z,17.38
2017-01-12T05:32:55.697Z,17.38
2017-01-12T05:33:55.635Z,17.28
2017-01-12T05:34:55.572Z,17.28
2017-01-12T05:35:55.511Z,17.28
2017-01-12T05:36:55.449Z,17.28
2017-01-12T05:37:55.386Z,17.28
2017-01-12T05:38:55.325Z,17.28
2017-01-12T05:39:55.267Z,17.19
2017-01-12T05:40:55.206Z,17.19
2017-01-12T05:41:55.144Z,17.28
2017-01-12T05:42:55.078Z,17.09
2017-01-12T05:43:55.020Z,17.28
2017-01-12T05:44:54.959Z,17.28
2017-01-12T05:45:54.896Z,17.28
2017-01-12T05:46:54.838Z,17.19
2017-01-12T05:47:54.777Z,17.38
2017-01-12T05:48:54.710Z,17.19
2017-01-12T05:49:54.649Z,17.38
2017-01-12T05:50:54.586Z,17.38
2017-01-12T05:51:54.529Z,17.76
2017-01-12T05:52:54.464Z,17.29
2017-01-12T05:53:54.401Z,17.67
2017-01-12T05:54:54.339Z,17.57
2017-01-12T05:55:54.278Z,17.57
2017-01-12T05:56:54.217Z,17.57
2017-01-12T05:57:54.154Z,17.47
2017-01-12T05:58:54.094Z,17.47
2017-01-12T05:59:54.035Z,17.67
2017-01-12T06:00:53.970Z,17.57
2017-01-12T06:01:53.909Z,17.57
2017-01-12T06:02:53.846Z,17.57
2017-01-12T06:03:53.787Z,16.99
2017-01-12T06:04:53.722Z,17.47
2017-01-12T06:05:54.055Z,16.99
2017-01-12T06:06:53.607Z,16.99
2017-01-12T06:07:53.538Z,16.89
2017-01-12T06:08:53.478Z,16.99
2017-01-12T06:09:53.413Z,16.89
2017-01-12T06:10:53.353Z,16.89
2017-01-12T06:11:53.289Z,17.19
2017-01-12T06:12:53.229Z,16.99
2017-01-12T06:13:53.168Z,16.99
2017-01-12T06:14:53.104Z,17.19
2017-01-12T06:15:53.043Z,17.09
2017-01-12T06:16:52.984Z,17.28
2017-01-12T06:17:52.921Z,17.09
2017-01-12T06:18:52.885Z,17.09
2017-01-12T06:19:52.799Z,17.09
2017-01-12T06:20:52.737Z,17.09
2017-01-12T06:21:52.677Z,17.19
2017-01-12T06:22:52.610Z,17.09
2017-01-12T06:23:52.553Z,17.28
2017-01-12T06:24:52.487Z,17.28
2017-01-12T06:25:52.426Z,17.28
2017-01-12T06:26:52.365Z,17.19
2017-01-12T06:27:52.302Z,17.38
2017-01-12T06:28:52.242Z,17.19
2017-01-12T06:29:52.179Z,17.29
2017-01-12T06:30:52.118Z,17.19
2017-01-12T06:31:52.055Z,17.38
2017-01-12T06:32:52.197Z,17.47
2017-01-12T06:33:51.931Z,17.09
2017-01-12T06:34:51.870Z,17.47
2017-01-12T06:35:51.838Z,17.47
2017-01-12T06:36:51.746Z,17.09
2017-01-12T06:37:51.685Z,17.09
2017-01-12T06:38:51.624Z,17.09
2017-01-12T06:39:51.560Z,17.28
2017-01-12T06:40:51.499Z,17.19
2017-01-12T06:41:51.439Z,17.28
2017-01-12T06:42:51.375Z,17.19
2017-01-12T06:43:51.313Z,17.47
2017-01-12T06:44:51.252Z,17.19
2017-01-12T06:45:51.189Z,17.57
2017-01-12T06:46:51.128Z,17.38
2017-01-12T06:47:51.067Z,17.38
2017-01-12T06:48:51.003Z,17.47
2017-01-12T06:49:50.941Z,17.47
2017-01-12T06:50:50.882Z,17.38
2017-01-12T06:51:50.818Z,17.38
2017-01-12T06:52:50.756Z,17.28
2017-01-12T06:53:50.692Z,17.19
2017-01-12T06:54:50.631Z,17.28
2017-01-12T06:55:50.569Z,17.28
2017-01-12T06:56:50.507Z,17.28
2017-01-12T06:57:50.447Z,17.19
2017-01-12T06:58:50.383Z,17.19
2017-01-12T06:59:50.323Z,17.57
2017-01-12T07:00:50.261Z,17.38
2017-01-12T07:01:50.196Z,17.38
2017-01-12T07:02:51.335Z,17.19
2017-01-12T07:03:50.074Z,17.47
2017-01-12T07:04:50.010Z,17.47
2017-01-12T07:05:49.948Z,17.47
2017-01-12T07:06:49.886Z,17.38
2017-01-12T07:07:49.827Z,17.28
2017-01-12T07:08:49.763Z,17.28
2017-01-12T07:09:49.700Z,17.28
2017-01-12T07:10:49.637Z,17.28
2017-01-12T07:11:49.579Z,17.19
2017-01-12T07:12:49.515Z,17.28
2017-01-12T07:13:49.454Z,17.47
2017-01-12T07:14:49.392Z,16.89
2017-01-12T07:15:49.332Z,17.28
2017-01-12T07:16:49.267Z,16.99
2017-01-12T07:17:49.205Z,17.28
2017-01-12T07:18:49.146Z,17.28
2017-01-12T07:19:49.084Z,17.38
2017-01-12T07:20:49.021Z,16.89
2017-01-12T07:21:48.961Z,17.28
2017-01-12T07:22:48.899Z,17.28
2017-01-12T07:23:48.837Z,17.28
2017-01-12T07:24:48.774Z,17.19
2017-01-12T07:25:48.713Z,17.19
2017-01-12T07:26:48.651Z,17.38
2017-01-12T07:27:48.588Z,17.19
2017-01-12T07:28:48.535Z,16.89
2017-01-12T07:29:48.466Z,17.19
2017-01-12T07:30:48.402Z,16.89
2017-01-12T07:31:48.340Z,16.8
2017-01-12T07:32:48.281Z,16.89
2017-01-12T07:33:48.218Z,17.28
2017-01-12T07:34:48.153Z,16.89
2017-01-12T07:35:48.095Z,16.89
2017-01-12T07:36:48.031Z,16.89
2017-01-12T07:37:47.969Z,17.28
2017-01-12T07:38:47.908Z,16.99
2017-01-12T07:39:47.851Z,16.89
2017-01-12T07:40:47.784Z,16.99
2017-01-12T07:41:47.720Z,17.38
2017-01-12T07:42:47.660Z,16.89
2017-01-12T07:43:47.600Z,17.28
2017-01-12T07:44:47.536Z,17.47
2017-01-12T07:45:47.573Z,17.09
2017-01-12T07:46:47.412Z,17.09
2017-01-12T07:47:47.353Z,17.09
2017-01-12T07:48:47.287Z,17.09
2017-01-12T07:49:47.237Z,17.67
2017-01-12T07:50:47.168Z,16.89
2017-01-12T07:51:47.102Z,17.67
2017-01-12T07:52:47.040Z,17.57
2017-01-12T07:53:46.979Z,17.28
2017-01-12T07:54:46.918Z,17.19
2017-01-12T07:55:46.857Z,17.28
2017-01-12T07:56:46.799Z,17.57
2017-01-12T07:57:46.730Z,17.57
2017-01-12T07:58:46.673Z,17.67
2017-01-12T07:59:46.616Z,17.57
2017-01-12T08:00:46.548Z,17.09
2017-01-12T08:01:46.484Z,17.19
2017-01-12T08:02:46.426Z,17.19
2017-01-12T08:03:46.359Z,17.19
2017-01-12T08:04:46.301Z,17.09
2017-01-12T08:05:46.237Z,17.47
2017-01-12T08:06:46.176Z,17.09
2017-01-12T08:07:46.112Z,17.38
2017-01-12T08:08:46.053Z,17.28
2017-01-12T08:09:45.989Z,17.57
2017-01-12T08:10:45.927Z,17.28
2017-01-12T08:11:45.867Z,17.28
2017-01-12T08:12:45.808Z,17.28
2017-01-12T08:13:45.745Z,16.89
2017-01-12T08:14:45.678Z,16.89
2017-01-12T08:15:45.820Z,16.99
2017-01-12T08:16:45.557Z,16.89
2017-01-12T08:17:45.517Z,17.09
2017-01-12T08:18:45.431Z,16.99
2017-01-12T08:19:45.393Z,16.7
2017-01-12T08:20:45.317Z,16.8
2017-01-12T08:21:45.250Z,16.99
2017-01-12T08:22:45.252Z,16.89
2017-01-12T08:23:45.123Z,16.89
2017-01-12T08:24:45.061Z,16.89
2017-01-12T08:25:44.999Z,16.89
2017-01-12T08:26:44.937Z,16.89
2017-01-12T08:27:44.878Z,16.99
2017-01-12T08:28:44.816Z,16.99
2017-01-12T08:29:44.754Z,16.99
2017-01-12T08:30:44.741Z,16.89
2017-01-12T08:31:44.631Z,16.99
2017-01-12T08:32:44.568Z,16.99
2017-01-12T08:33:44.505Z,16.89
2017-01-12T08:34:44.447Z,16.99
2017-01-12T08:35:44.385Z,16.7
2017-01-12T08:36:44.325Z,16.99
2017-01-12T08:37:44.261Z,16.99
2017-01-12T08:38:44.207Z,16.99
2017-01-12T08:39:44.138Z,16.99
2017-01-12T08:40:44.077Z,16.99
2017-01-12T08:41:44.404Z,16.89
2017-01-12T08:42:43.951Z,16.99
2017-01-12T08:43:43.888Z,16.99
2017-01-12T08:44:43.842Z,16.89
2017-01-12T08:45:43.767Z,16.7
2017-01-12T08:46:43.707Z,16.89
2017-01-12T08:47:43.642Z,16.89
2017-01-12T08:48:43.583Z,17.1
2017-01-12T08:49:43.518Z,16.89
2017-01-12T08:50:58.344Z,16.99
2017-01-12T08:51:43.400Z,16.99
2017-01-12T08:52:43.335Z,16.99
2017-01-12T08:53:43.275Z,16.89
2017-01-12T08:54:43.217Z,16.89
2017-01-12T08:55:43.150Z,16.99
2017-01-12T08:56:43.096Z,16.89
2017-01-12T08:57:43.030Z,16.99
2017-01-12T08:58:42.972Z,16.89
2017-01-12T08:59:42.905Z,16.99
2017-01-12T09:00:42.845Z,16.9
2017-01-12T09:01:42.786Z,16.99
2017-01-12T09:02:42.721Z,17
2017-01-12T09:03:42.662Z,16.99
2017-01-12T09:04:42.599Z,16.99
2017-01-12T09:05:42.533Z,16.99
2017-01-12T09:06:42.476Z,16.99
2017-01-12T09:07:42.413Z,16.89
2017-01-12T09:08:42.354Z,16.89
2017-01-12T09:09:42.297Z,16.99
2017-01-12T09:10:42.228Z,17.09
2017-01-12T09:11:42.168Z,16.81
2017-01-12T09:12:42.104Z,16.99
2017-01-12T09:13:42.040Z,16.8
2017-01-12T09:14:41.980Z,16.89
2017-01-12T09:15:41.918Z,16.89
2017-01-12T09:16:41.861Z,16.8
2017-01-12T09:17:41.809Z,16.8
2017-01-12T09:18:41.734Z,16.89
2017-01-12T09:19:41.674Z,16.89
2017-01-12T09:20:41.771Z,17.28
2017-01-12T09:21:41.554Z,17.38
2017-01-12T09:22:41.488Z,17.28
2017-01-12T09:23:41.426Z,17.47
2017-01-12T09:24:41.364Z,17.47
2017-01-12T09:25:41.309Z,17.28
2017-01-12T09:26:41.241Z,16.99
2017-01-12T09:27:41.183Z,17.09
2017-01-12T09:28:41.120Z,17.57
2017-01-12T09:29:41.057Z,17.38
2017-01-12T09:30:40.998Z,17.76
2017-01-12T09:31:40.930Z,17.96
2017-01-12T09:32:40.868Z,18.15
2017-01-12T09:33:40.809Z,18.15
2017-01-12T09:34:40.751Z,18.63
2017-01-12T09:35:40.732Z,18.34
2017-01-12T09:36:40.627Z,18.25
2017-01-12T09:37:40.563Z,18.63
2017-01-12T09:38:40.502Z,18.74
2017-01-12T09:39:40.437Z,19.02
2017-01-12T09:40:40.377Z,18.92
2017-01-12T09:41:40.317Z,18.73
2017-01-12T09:42:40.257Z,19.12
2017-01-12T09:43:40.192Z,19.22
2017-01-12T09:44:40.131Z,19.51
2017-01-12T09:45:40.068Z,19.4
2017-01-12T09:46:40.011Z,19.61
2017-01-12T09:47:39.945Z,19.6
2017-01-12T09:48:39.883Z,19.6
2017-01-12T09:49:39.823Z,19.7
2017-01-12T09:50:39.762Z,19.8
2017-01-12T09:51:39.701Z,19.89
2017-01-12T09:52:39.639Z,20.38
2017-01-12T09:53:39.582Z,20.48
2017-01-12T09:54:39.907Z,20.37
2017-01-12T09:55:39.455Z,20.18
2017-01-12T09:56:39.394Z,20.28
2017-01-12T09:57:39.331Z,20.76
2017-01-12T09:58:39.270Z,20.47
2017-01-12T09:59:39.206Z,20.47
2017-01-12T10:00:39.144Z,20.28
2017-01-12T10:01:39.087Z,20.56
2017-01-12T10:02:39.022Z,20.57
2017-01-12T10:03:39.081Z,20.86
2017-01-12T10:04:38.906Z,20.86
2017-01-12T10:05:38.837Z,20.95
2017-01-12T10:06:38.776Z,21.15
2017-01-12T10:07:38.713Z,20.95
2017-01-12T10:08:38.650Z,21.24
2017-01-12T10:09:38.592Z,21.44
2017-01-12T10:10:38.528Z,21.72
2017-01-12T10:11:38.469Z,21.44
2017-01-12T10:12:38.404Z,21.83
2017-01-12T10:13:38.350Z,21.72
2017-01-12T10:14:38.284Z,21.72
2017-01-12T10:15:38.223Z,21.54
2017-01-12T10:16:38.186Z,21.62
2017-01-12T10:17:38.097Z,21.82
2017-01-12T10:18:38.037Z,21.72
2017-01-12T10:19:37.994Z,22.12
2017-01-12T10:20:37.914Z,22.2
2017-01-12T10:21:37.878Z,22.2
2017-01-12T10:22:37.791Z,21.73
2017-01-12T10:23:37.729Z,21.82
2017-01-12T10:24:37.677Z,22.11
2017-01-12T10:25:37.628Z,22.31
2017-01-12T10:26:37.544Z,22.3
2017-01-12T10:27:37.492Z,22.11
2017-01-12T10:28:37.423Z,22.31
2017-01-12T10:29:37.362Z,22.7
2017-01-12T10:30:37.300Z,22.5
2017-01-12T10:31:37.632Z,22.6
2017-01-12T10:32:37.178Z,22.6
2017-01-12T10:33:37.120Z,22.6
2017-01-12T10:34:37.055Z,22.59
2017-01-12T10:35:36.990Z,22.7
2017-01-12T10:36:36.932Z,22.5
2017-01-12T10:37:36.873Z,22.6
2017-01-12T10:38:36.805Z,22.6
2017-01-12T10:39:36.747Z,22.89
2017-01-12T10:40:36.683Z,22.89
2017-01-12T10:41:36.620Z,23.08
2017-01-12T10:42:36.561Z,22.99
2017-01-12T10:43:36.500Z,23.08
2017-01-12T10:44:36.435Z,22.99
2017-01-12T10:45:36.375Z,22.99
2017-01-12T10:46:36.320Z,22.89
2017-01-12T10:47:36.275Z,23.18
2017-01-12T10:48:36.195Z,23.28
2017-01-12T10:49:36.130Z,23.18
2017-01-12T10:50:36.086Z,23.28
2017-01-12T10:51:36.041Z,23.18
2017-01-12T10:52:35.980Z,22.41
2017-01-12T10:53:36.027Z,22.99
2017-01-12T10:54:35.972Z,22.89
2017-01-12T10:55:36.152Z,22.8
2017-01-12T10:56:35.872Z,22.5
2017-01-12T10:57:35.657Z,22.8
2017-01-12T10:58:35.578Z,22.5
2017-01-12T10:59:35.518Z,22.6
2017-01-12T11:00:35.452Z,22.7
2017-01-12T11:01:35.400Z,22.31
2017-01-12T11:02:35.330Z,22.22
2017-01-12T11:03:35.267Z,22.31
2017-01-12T11:04:35.215Z,22.31
2017-01-12T11:05:35.244Z,22.12
2017-01-12T11:06:35.443Z,22.22
2017-01-12T11:07:35.025Z,21.92
2017-01-12T11:08:34.976Z,21.64
2017-01-12T11:09:34.900Z,21.64
2017-01-12T11:10:34.986Z,21.73
2017-01-12T11:11:34.775Z,21.64
2017-01-12T11:12:34.714Z,21.64
2017-01-12T11:13:34.651Z,21.73
2017-01-12T11:14:34.594Z,21.73
2017-01-12T11:15:34.530Z,21.83
2017-01-12T11:16:34.467Z,21.73
2017-01-12T11:17:34.407Z,21.73
2017-01-12T11:18:34.734Z,21.64
2017-01-12T11:19:34.282Z,21.83
2017-01-12T11:20:34.220Z,21.73
2017-01-12T11:21:34.160Z,21.73
2017-01-12T11:22:34.097Z,21.54
2017-01-12T11:23:34.039Z,21.54
2017-01-12T11:24:34.000Z,21.44
2017-01-12T11:25:33.909Z,21.15
2017-01-12T11:26:33.852Z,21.35
2017-01-12T11:27:33.788Z,21.44
2017-01-12T11:28:33.726Z,21.44
2017-01-12T11:29:33.665Z,21.35
2017-01-12T11:30:33.601Z,21.44
2017-01-12T11:31:33.604Z,21.44
2017-01-12T11:32:33.481Z,21.15
2017-01-12T11:33:33.416Z,21.25
2017-01-12T11:34:33.374Z,21.15
2017-01-12T11:35:33.294Z,21.25
2017-01-12T11:36:33.233Z,20.96
2017-01-12T11:37:33.171Z,21.35
2017-01-12T11:38:33.112Z,21.06
2017-01-12T11:39:33.047Z,20.86
2017-01-12T11:40:32.993Z,20.86
2017-01-12T11:41:32.925Z,20.96
2017-01-12T11:42:32.862Z,20.96
2017-01-12T11:43:32.806Z,20.86
2017-01-12T11:44:32.743Z,20.96
2017-01-12T11:45:32.685Z,20.77
2017-01-12T11:46:32.618Z,20.86
2017-01-12T11:47:32.554Z,20.96
2017-01-12T11:48:32.494Z,20.67
2017-01-12T11:49:32.433Z,20.96
2017-01-12T11:50:32.406Z,20.86
2017-01-12T11:51:32.306Z,20.86
2017-01-12T11:52:32.246Z,20.86
2017-01-12T11:53:32.185Z,20.86
2017-01-12T11:54:32.121Z,20.67
2017-01-12T11:55:32.753Z,20.86
2017-01-12T11:56:31.999Z,20.57
2017-01-12T11:57:31.934Z,20.77
2017-01-12T11:58:31.874Z,20.67
2017-01-12T11:59:31.814Z,20.77
2017-01-12T12:00:31.760Z,20.67
2017-01-12T12:01:31.691Z,20.67
2017-01-12T12:02:31.629Z,20.77
2017-01-12T12:03:31.962Z,20.77
2017-01-12T12:04:31.504Z,20.67
2017-01-12T12:05:31.444Z,20.57
2017-01-12T12:06:31.386Z,20.57
2017-01-12T12:07:31.320Z,20.48
2017-01-12T12:08:31.258Z,20.28
2017-01-12T12:09:31.199Z,20.57
2017-01-12T12:10:31.135Z,20.19
2017-01-12T12:11:31.075Z,20.77
2017-01-12T12:12:31.010Z,20.57
2017-01-12T12:13:30.950Z,20.38
2017-01-12T12:14:30.886Z,20.28
2017-01-12T12:15:30.827Z,20.38
2017-01-12T12:16:30.763Z,20.38
2017-01-12T12:17:30.707Z,20.86
2017-01-12T12:18:30.650Z,20.57
2017-01-12T12:19:30.582Z,20.67
2017-01-12T12:20:30.518Z,20.67
2017-01-12T12:21:30.456Z,20.96
2017-01-12T12:22:30.396Z,20.57
2017-01-12T12:23:30.334Z,20.38
2017-01-12T12:24:30.275Z,20.38
2017-01-12T12:25:31.326Z,20.28
2017-01-12T12:26:30.148Z,20.57
2017-01-12T12:27:30.089Z,20.57
2017-01-12T12:28:30.026Z,20.57
2017-01-12T12:29:29.965Z,20.67
2017-01-12T12:30:29.902Z,20.28
2017-01-12T12:31:29.843Z,20.38
2017-01-12T12:32:29.779Z,20.38
2017-01-12T12:33:29.719Z,20.57
2017-01-12T12:34:30.286Z,20.77
2017-01-12T12:35:30.029Z,20.48
2017-01-12T12:36:29.964Z,20.38
2017-01-12T12:37:30.306Z,20.48
2017-01-12T12:38:30.241Z,20.57
2017-01-12T12:39:29.975Z,20.77
2017-01-12T12:40:44.397Z,20.38
2017-01-12T12:41:29.857Z,20.57
2017-01-12T12:42:30.000Z,20.48
2017-01-12T12:43:49.349Z,20.38
2017-01-12T12:44:37.357Z,20.28
2017-01-12T12:45:28.984Z,20.48
2017-01-12T12:46:28.919Z,20.38
2017-01-12T12:47:28.861Z,20.19
2017-01-12T12:48:28.806Z,20.19
2017-01-12T12:49:28.745Z,20.28
2017-01-12T12:50:28.678Z,20.19
2017-01-12T12:51:28.614Z,20.09
2017-01-12T12:52:28.552Z,20
2017-01-12T12:53:28.489Z,20.48